<?xml version="1.0" encoding="UTF-8" standalone="no" ?>
<gpx xmlns="http://www.topografix.com/GPX/1/1" xmlns:xsi="http://www.w3.org/2001/XMLSchema-instance" xsi:schemaLocation="http://www.topografix.com/GPX/1/1 http://www.topografix.com/GPX/1/1/gpx.xsd" version="1.1" creator="VisuGPX - https://www.visugpx.com">
  <metadata>
    <name>Domératoise 2016</name>
    <desc><![CDATA[Circuit Vélo Tout Terrain 47 kilomètres]]></desc>
  </metadata>
  <trk>
    <name><![CDATA[46.00_Domeratoise 2016]]></name>
    <trkseg>
      <trkpt lat="46.36609" lon="2.57987">
        <ele>222</ele>
        <time>2016-10-03T19:05:19Z</time>
      </trkpt>
      <trkpt lat="46.36609" lon="2.57984">
        <ele>222</ele>
        <time>2016-10-03T19:07:19Z</time>
      </trkpt>
      <trkpt lat="46.36581" lon="2.57987">
        <ele>222</ele>
        <time>2016-10-03T19:09:19Z</time>
      </trkpt>
      <trkpt lat="46.36576" lon="2.57912">
        <ele>224</ele>
        <time>2016-10-03T19:11:19Z</time>
      </trkpt>
      <trkpt lat="46.36588" lon="2.57871">
        <ele>225</ele>
        <time>2016-10-03T19:13:19Z</time>
      </trkpt>
      <trkpt lat="46.36632" lon="2.57823">
        <ele>226</ele>
        <time>2016-10-03T19:15:19Z</time>
      </trkpt>
      <trkpt lat="46.3659" lon="2.5766">
        <ele>226</ele>
        <time>2016-10-03T19:17:19Z</time>
      </trkpt>
      <trkpt lat="46.36731" lon="2.57508">
        <ele>226</ele>
        <time>2016-10-03T19:19:19Z</time>
      </trkpt>
      <trkpt lat="46.36656" lon="2.57269">
        <ele>227</ele>
        <time>2016-10-03T19:21:19Z</time>
      </trkpt>
      <trkpt lat="46.36632" lon="2.57254">
        <ele>227</ele>
        <time>2016-10-03T19:23:19Z</time>
      </trkpt>
      <trkpt lat="46.36583" lon="2.57281">
        <ele>227</ele>
        <time>2016-10-03T19:25:19Z</time>
      </trkpt>
      <trkpt lat="46.36489" lon="2.57315">
        <ele>227</ele>
        <time>2016-10-03T19:27:19Z</time>
      </trkpt>
      <trkpt lat="46.36444" lon="2.57295">
        <ele>228</ele>
        <time>2016-10-03T19:29:19Z</time>
      </trkpt>
      <trkpt lat="46.3641" lon="2.57261">
        <ele>227</ele>
        <time>2016-10-03T19:31:19Z</time>
      </trkpt>
      <trkpt lat="46.36347" lon="2.57261">
        <ele>229</ele>
        <time>2016-10-03T19:33:19Z</time>
      </trkpt>
      <trkpt lat="46.363" lon="2.57254">
        <ele>229</ele>
        <time>2016-10-03T19:35:19Z</time>
      </trkpt>
      <trkpt lat="46.36316" lon="2.57168">
        <ele>228</ele>
        <time>2016-10-03T19:37:19Z</time>
      </trkpt>
      <trkpt lat="46.36324" lon="2.57108">
        <ele>229</ele>
        <time>2016-10-03T19:39:19Z</time>
      </trkpt>
      <trkpt lat="46.36224" lon="2.57091">
        <ele>229</ele>
        <time>2016-10-03T19:41:19Z</time>
      </trkpt>
      <trkpt lat="46.36242" lon="2.57027">
        <ele>231</ele>
        <time>2016-10-03T19:43:19Z</time>
      </trkpt>
      <trkpt lat="46.36233" lon="2.56957">
        <ele>232</ele>
        <time>2016-10-03T19:45:19Z</time>
      </trkpt>
      <trkpt lat="46.36208" lon="2.56785">
        <ele>231</ele>
        <time>2016-10-03T19:47:19Z</time>
      </trkpt>
      <trkpt lat="46.36199" lon="2.56648">
        <ele>234</ele>
        <time>2016-10-03T19:49:19Z</time>
      </trkpt>
      <trkpt lat="46.3621" lon="2.56397">
        <ele>235</ele>
        <time>2016-10-03T19:51:19Z</time>
      </trkpt>
      <trkpt lat="46.3614" lon="2.56339">
        <ele>235</ele>
        <time>2016-10-03T19:53:19Z</time>
      </trkpt>
      <trkpt lat="46.36052" lon="2.56255">
        <ele>236</ele>
        <time>2016-10-03T19:55:19Z</time>
      </trkpt>
      <trkpt lat="46.35901" lon="2.56072">
        <ele>243</ele>
        <time>2016-10-03T19:57:19Z</time>
      </trkpt>
      <trkpt lat="46.36008" lon="2.55849">
        <ele>234</ele>
        <time>2016-10-03T19:59:19Z</time>
      </trkpt>
      <trkpt lat="46.36052" lon="2.5569">
        <ele>229</ele>
        <time>2016-10-03T20:01:19Z</time>
      </trkpt>
      <trkpt lat="46.36091" lon="2.55484">
        <ele>227</ele>
        <time>2016-10-03T20:03:19Z</time>
      </trkpt>
      <trkpt lat="46.36108" lon="2.55353">
        <ele>228</ele>
        <time>2016-10-03T20:05:19Z</time>
      </trkpt>
      <trkpt lat="46.36139" lon="2.55232">
        <ele>225</ele>
        <time>2016-10-03T20:07:19Z</time>
      </trkpt>
      <trkpt lat="46.36191" lon="2.55117">
        <ele>224</ele>
        <time>2016-10-03T20:09:19Z</time>
      </trkpt>
      <trkpt lat="46.36214" lon="2.55054">
        <ele>223</ele>
        <time>2016-10-03T20:11:19Z</time>
      </trkpt>
      <trkpt lat="46.36262" lon="2.54925">
        <ele>222</ele>
        <time>2016-10-03T20:13:19Z</time>
      </trkpt>
      <trkpt lat="46.36299" lon="2.54816">
        <ele>222</ele>
        <time>2016-10-03T20:15:19Z</time>
      </trkpt>
      <trkpt lat="46.36342" lon="2.54759">
        <ele>224</ele>
        <time>2016-10-03T20:17:19Z</time>
      </trkpt>
      <trkpt lat="46.3639" lon="2.54659">
        <ele>223</ele>
        <time>2016-10-03T20:19:19Z</time>
      </trkpt>
      <trkpt lat="46.36461" lon="2.54596">
        <ele>223</ele>
        <time>2016-10-03T20:21:19Z</time>
      </trkpt>
      <trkpt lat="46.36503" lon="2.54475">
        <ele>223</ele>
        <time>2016-10-03T20:23:19Z</time>
      </trkpt>
      <trkpt lat="46.36564" lon="2.5436">
        <ele>227</ele>
        <time>2016-10-03T20:25:19Z</time>
      </trkpt>
      <trkpt lat="46.36796" lon="2.53973">
        <ele>233</ele>
        <time>2016-10-03T20:27:19Z</time>
      </trkpt>
      <trkpt lat="46.36831" lon="2.53913">
        <ele>234</ele>
        <time>2016-10-03T20:29:19Z</time>
      </trkpt>
      <trkpt lat="46.36912" lon="2.53814">
        <ele>232</ele>
        <time>2016-10-03T20:31:19Z</time>
      </trkpt>
      <trkpt lat="46.37021" lon="2.53752">
        <ele>221</ele>
        <time>2016-10-03T20:33:19Z</time>
      </trkpt>
      <trkpt lat="46.37076" lon="2.5368">
        <ele>218</ele>
        <time>2016-10-03T20:35:19Z</time>
      </trkpt>
      <trkpt lat="46.37173" lon="2.53565">
        <ele>216</ele>
        <time>2016-10-03T20:37:19Z</time>
      </trkpt>
      <trkpt lat="46.37325" lon="2.53352">
        <ele>217</ele>
        <time>2016-10-03T20:39:19Z</time>
      </trkpt>
      <trkpt lat="46.37372" lon="2.5325">
        <ele>221</ele>
        <time>2016-10-03T20:41:19Z</time>
      </trkpt>
      <trkpt lat="46.37425" lon="2.53027">
        <ele>225</ele>
        <time>2016-10-03T20:43:19Z</time>
      </trkpt>
      <trkpt lat="46.37473" lon="2.52844">
        <ele>229</ele>
        <time>2016-10-03T20:45:19Z</time>
      </trkpt>
      <trkpt lat="46.37499" lon="2.5276">
        <ele>230</ele>
        <time>2016-10-03T20:47:19Z</time>
      </trkpt>
      <trkpt lat="46.37609" lon="2.52665">
        <ele>227</ele>
        <time>2016-10-03T20:49:19Z</time>
      </trkpt>
      <trkpt lat="46.37727" lon="2.52581">
        <ele>222</ele>
        <time>2016-10-03T20:51:19Z</time>
      </trkpt>
      <trkpt lat="46.37798" lon="2.52546">
        <ele>221</ele>
        <time>2016-10-03T20:53:19Z</time>
      </trkpt>
      <trkpt lat="46.37875" lon="2.52446">
        <ele>224</ele>
        <time>2016-10-03T20:55:19Z</time>
      </trkpt>
      <trkpt lat="46.37943" lon="2.52385">
        <ele>227</ele>
        <time>2016-10-03T20:57:19Z</time>
      </trkpt>
      <trkpt lat="46.38025" lon="2.52322">
        <ele>226</ele>
        <time>2016-10-03T20:59:19Z</time>
      </trkpt>
      <trkpt lat="46.3817" lon="2.5232">
        <ele>225</ele>
        <time>2016-10-03T21:01:19Z</time>
      </trkpt>
      <trkpt lat="46.38241" lon="2.52285">
        <ele>222</ele>
        <time>2016-10-03T21:03:19Z</time>
      </trkpt>
      <trkpt lat="46.38403" lon="2.52126">
        <ele>213</ele>
        <time>2016-10-03T21:05:19Z</time>
      </trkpt>
      <trkpt lat="46.38543" lon="2.52174">
        <ele>211</ele>
        <time>2016-10-03T21:07:19Z</time>
      </trkpt>
      <trkpt lat="46.38621" lon="2.52246">
        <ele>213</ele>
        <time>2016-10-03T21:09:19Z</time>
      </trkpt>
      <trkpt lat="46.38725" lon="2.52303">
        <ele>213</ele>
        <time>2016-10-03T21:11:19Z</time>
      </trkpt>
      <trkpt lat="46.38822" lon="2.52255">
        <ele>213</ele>
        <time>2016-10-03T21:13:19Z</time>
      </trkpt>
      <trkpt lat="46.3891" lon="2.52186">
        <ele>216</ele>
        <time>2016-10-03T21:15:19Z</time>
      </trkpt>
      <trkpt lat="46.39024" lon="2.52234">
        <ele>223</ele>
        <time>2016-10-03T21:17:19Z</time>
      </trkpt>
      <trkpt lat="46.39128" lon="2.52265">
        <ele>225</ele>
        <time>2016-10-03T21:19:19Z</time>
      </trkpt>
      <trkpt lat="46.39191" lon="2.52307">
        <ele>222</ele>
        <time>2016-10-03T21:21:19Z</time>
      </trkpt>
      <trkpt lat="46.39273" lon="2.52324">
        <ele>220</ele>
        <time>2016-10-03T21:23:19Z</time>
      </trkpt>
      <trkpt lat="46.3937" lon="2.5232">
        <ele>218</ele>
        <time>2016-10-03T21:25:19Z</time>
      </trkpt>
      <trkpt lat="46.39451" lon="2.52327">
        <ele>218</ele>
        <time>2016-10-03T21:27:19Z</time>
      </trkpt>
      <trkpt lat="46.39542" lon="2.52318">
        <ele>222</ele>
        <time>2016-10-03T21:29:19Z</time>
      </trkpt>
      <trkpt lat="46.39653" lon="2.5225">
        <ele>224</ele>
        <time>2016-10-03T21:31:19Z</time>
      </trkpt>
      <trkpt lat="46.39706" lon="2.5224">
        <ele>223</ele>
        <time>2016-10-03T21:33:19Z</time>
      </trkpt>
      <trkpt lat="46.39776" lon="2.52214">
        <ele>222</ele>
        <time>2016-10-03T21:35:19Z</time>
      </trkpt>
      <trkpt lat="46.39822" lon="2.52166">
        <ele>222</ele>
        <time>2016-10-03T21:37:19Z</time>
      </trkpt>
      <trkpt lat="46.39909" lon="2.52094">
        <ele>225</ele>
        <time>2016-10-03T21:39:19Z</time>
      </trkpt>
      <trkpt lat="46.39994" lon="2.51996">
        <ele>230</ele>
        <time>2016-10-03T21:41:19Z</time>
      </trkpt>
      <trkpt lat="46.40046" lon="2.51917">
        <ele>233</ele>
        <time>2016-10-03T21:43:19Z</time>
      </trkpt>
      <trkpt lat="46.40172" lon="2.51789">
        <ele>239</ele>
        <time>2016-10-03T21:45:19Z</time>
      </trkpt>
      <trkpt lat="46.40416" lon="2.51688">
        <ele>242</ele>
        <time>2016-10-03T21:47:19Z</time>
      </trkpt>
      <trkpt lat="46.40624" lon="2.51598">
        <ele>239</ele>
        <time>2016-10-03T21:49:19Z</time>
      </trkpt>
      <trkpt lat="46.40841" lon="2.51598">
        <ele>239</ele>
        <time>2016-10-03T21:51:19Z</time>
      </trkpt>
      <trkpt lat="46.41035" lon="2.51612">
        <ele>241</ele>
        <time>2016-10-03T21:53:19Z</time>
      </trkpt>
      <trkpt lat="46.41161" lon="2.51612">
        <ele>243</ele>
        <time>2016-10-03T21:55:19Z</time>
      </trkpt>
      <trkpt lat="46.41291" lon="2.51594">
        <ele>244</ele>
        <time>2016-10-03T21:57:19Z</time>
      </trkpt>
      <trkpt lat="46.41331" lon="2.51508">
        <ele>247</ele>
        <time>2016-10-03T21:59:19Z</time>
      </trkpt>
      <trkpt lat="46.41379" lon="2.51378">
        <ele>247</ele>
        <time>2016-10-03T22:01:19Z</time>
      </trkpt>
      <trkpt lat="46.41546" lon="2.5099">
        <ele>244</ele>
        <time>2016-10-03T22:03:19Z</time>
      </trkpt>
      <trkpt lat="46.41672" lon="2.50702">
        <ele>245</ele>
        <time>2016-10-03T22:05:19Z</time>
      </trkpt>
      <trkpt lat="46.41761" lon="2.50611">
        <ele>245</ele>
        <time>2016-10-03T22:07:19Z</time>
      </trkpt>
      <trkpt lat="46.41887" lon="2.50763">
        <ele>237</ele>
        <time>2016-10-03T22:09:19Z</time>
      </trkpt>
      <trkpt lat="46.41908" lon="2.50603">
        <ele>236</ele>
        <time>2016-10-03T22:11:19Z</time>
      </trkpt>
      <trkpt lat="46.41936" lon="2.50523">
        <ele>235</ele>
        <time>2016-10-03T22:13:19Z</time>
      </trkpt>
      <trkpt lat="46.41988" lon="2.50473">
        <ele>234</ele>
        <time>2016-10-03T22:15:19Z</time>
      </trkpt>
      <trkpt lat="46.4204" lon="2.50466">
        <ele>236</ele>
        <time>2016-10-03T22:17:19Z</time>
      </trkpt>
      <trkpt lat="46.42095" lon="2.50509">
        <ele>237</ele>
        <time>2016-10-03T22:19:19Z</time>
      </trkpt>
      <trkpt lat="46.4209" lon="2.50473">
        <ele>238</ele>
        <time>2016-10-03T22:21:19Z</time>
      </trkpt>
      <trkpt lat="46.42152" lon="2.50436">
        <ele>247</ele>
        <time>2016-10-03T22:23:19Z</time>
      </trkpt>
      <trkpt lat="46.42184" lon="2.50429">
        <ele>250</ele>
        <time>2016-10-03T22:25:19Z</time>
      </trkpt>
      <trkpt lat="46.42223" lon="2.50377">
        <ele>254</ele>
        <time>2016-10-03T22:27:19Z</time>
      </trkpt>
      <trkpt lat="46.42269" lon="2.5035">
        <ele>257</ele>
        <time>2016-10-03T22:29:19Z</time>
      </trkpt>
      <trkpt lat="46.42302" lon="2.50291">
        <ele>261</ele>
        <time>2016-10-03T22:31:19Z</time>
      </trkpt>
      <trkpt lat="46.4244" lon="2.50298">
        <ele>263</ele>
        <time>2016-10-03T22:33:19Z</time>
      </trkpt>
      <trkpt lat="46.42527" lon="2.50372">
        <ele>265</ele>
        <time>2016-10-03T22:35:19Z</time>
      </trkpt>
      <trkpt lat="46.42587" lon="2.50483">
        <ele>266</ele>
        <time>2016-10-03T22:37:19Z</time>
      </trkpt>
      <trkpt lat="46.42603" lon="2.50445">
        <ele>268</ele>
        <time>2016-10-03T22:39:19Z</time>
      </trkpt>
      <trkpt lat="46.42615" lon="2.50488">
        <ele>267</ele>
        <time>2016-10-03T22:41:19Z</time>
      </trkpt>
      <trkpt lat="46.4284" lon="2.50465">
        <ele>283</ele>
        <time>2016-10-03T22:43:19Z</time>
      </trkpt>
      <trkpt lat="46.42969" lon="2.50404">
        <ele>280</ele>
        <time>2016-10-03T22:45:19Z</time>
      </trkpt>
      <trkpt lat="46.43507" lon="2.50436">
        <ele>264</ele>
        <time>2016-10-03T22:47:19Z</time>
      </trkpt>
      <trkpt lat="46.43713" lon="2.50509">
        <ele>275</ele>
        <time>2016-10-03T22:49:19Z</time>
      </trkpt>
      <trkpt lat="46.44142" lon="2.50574">
        <ele>276</ele>
        <time>2016-10-03T22:51:19Z</time>
      </trkpt>
      <trkpt lat="46.44315" lon="2.50577">
        <ele>277</ele>
        <time>2016-10-03T22:53:19Z</time>
      </trkpt>
      <trkpt lat="46.44418" lon="2.50549">
        <ele>277</ele>
        <time>2016-10-03T22:55:19Z</time>
      </trkpt>
      <trkpt lat="46.44583" lon="2.50548">
        <ele>281</ele>
        <time>2016-10-03T22:57:19Z</time>
      </trkpt>
      <trkpt lat="46.44864" lon="2.50642">
        <ele>278</ele>
        <time>2016-10-03T22:59:19Z</time>
      </trkpt>
      <trkpt lat="46.4499" lon="2.50641">
        <ele>272</ele>
        <time>2016-10-03T23:01:19Z</time>
      </trkpt>
      <trkpt lat="46.45078" lon="2.50675">
        <ele>273</ele>
        <time>2016-10-03T23:03:19Z</time>
      </trkpt>
      <trkpt lat="46.45148" lon="2.50746">
        <ele>274</ele>
        <time>2016-10-03T23:05:19Z</time>
      </trkpt>
      <trkpt lat="46.45249" lon="2.50789">
        <ele>276</ele>
        <time>2016-10-03T23:07:19Z</time>
      </trkpt>
      <trkpt lat="46.45471" lon="2.50757">
        <ele>275</ele>
        <time>2016-10-03T23:09:19Z</time>
      </trkpt>
      <trkpt lat="46.45691" lon="2.50779">
        <ele>271</ele>
        <time>2016-10-03T23:11:19Z</time>
      </trkpt>
      <trkpt lat="46.45756" lon="2.50782">
        <ele>268</ele>
        <time>2016-10-03T23:13:19Z</time>
      </trkpt>
      <trkpt lat="46.4586" lon="2.50748">
        <ele>264</ele>
        <time>2016-10-03T23:15:19Z</time>
      </trkpt>
      <trkpt lat="46.4592" lon="2.50779">
        <ele>263</ele>
        <time>2016-10-03T23:17:19Z</time>
      </trkpt>
      <trkpt lat="46.45947" lon="2.50816">
        <ele>265</ele>
        <time>2016-10-03T23:19:19Z</time>
      </trkpt>
      <trkpt lat="46.46097" lon="2.50763">
        <ele>279</ele>
        <time>2016-10-03T23:21:19Z</time>
      </trkpt>
      <trkpt lat="46.46135" lon="2.50737">
        <ele>283</ele>
        <time>2016-10-03T23:23:19Z</time>
      </trkpt>
      <trkpt lat="46.46197" lon="2.50664">
        <ele>291</ele>
        <time>2016-10-03T23:25:19Z</time>
      </trkpt>
      <trkpt lat="46.46252" lon="2.50627">
        <ele>295</ele>
        <time>2016-10-03T23:27:19Z</time>
      </trkpt>
      <trkpt lat="46.46273" lon="2.50586">
        <ele>294</ele>
        <time>2016-10-03T23:29:19Z</time>
      </trkpt>
      <trkpt lat="46.46281" lon="2.50505">
        <ele>294</ele>
        <time>2016-10-03T23:31:19Z</time>
      </trkpt>
      <trkpt lat="46.46285" lon="2.50457">
        <ele>293</ele>
        <time>2016-10-03T23:33:19Z</time>
      </trkpt>
      <trkpt lat="46.46323" lon="2.50393">
        <ele>291</ele>
        <time>2016-10-03T23:35:19Z</time>
      </trkpt>
      <trkpt lat="46.46364" lon="2.503">
        <ele>289</ele>
        <time>2016-10-03T23:37:19Z</time>
      </trkpt>
      <trkpt lat="46.46346" lon="2.50202">
        <ele>290</ele>
        <time>2016-10-03T23:39:19Z</time>
      </trkpt>
      <trkpt lat="46.46157" lon="2.49793">
        <ele>291</ele>
        <time>2016-10-03T23:41:19Z</time>
      </trkpt>
      <trkpt lat="46.46118" lon="2.49766">
        <ele>292</ele>
        <time>2016-10-03T23:43:19Z</time>
      </trkpt>
      <trkpt lat="46.46058" lon="2.49596">
        <ele>293</ele>
        <time>2016-10-03T23:45:19Z</time>
      </trkpt>
      <trkpt lat="46.45929" lon="2.49322">
        <ele>296</ele>
        <time>2016-10-03T23:47:19Z</time>
      </trkpt>
      <trkpt lat="46.45373" lon="2.4824">
        <ele>306</ele>
        <time>2016-10-03T23:49:19Z</time>
      </trkpt>
      <trkpt lat="46.45307" lon="2.48127">
        <ele>306</ele>
        <time>2016-10-03T23:51:19Z</time>
      </trkpt>
      <trkpt lat="46.45254" lon="2.47925">
        <ele>306</ele>
        <time>2016-10-03T23:53:19Z</time>
      </trkpt>
      <trkpt lat="46.45206" lon="2.47757">
        <ele>310</ele>
        <time>2016-10-03T23:55:19Z</time>
      </trkpt>
      <trkpt lat="46.4518" lon="2.4757">
        <ele>313</ele>
        <time>2016-10-03T23:57:19Z</time>
      </trkpt>
      <trkpt lat="46.4513" lon="2.47437">
        <ele>314</ele>
        <time>2016-10-03T23:59:19Z</time>
      </trkpt>
      <trkpt lat="46.45041" lon="2.47199">
        <ele>320</ele>
        <time>2016-10-04T00:01:19Z</time>
      </trkpt>
      <trkpt lat="46.44981" lon="2.47067">
        <ele>323</ele>
        <time>2016-10-04T00:03:19Z</time>
      </trkpt>
      <trkpt lat="46.44944" lon="2.46943">
        <ele>326</ele>
        <time>2016-10-04T00:05:19Z</time>
      </trkpt>
      <trkpt lat="46.44894" lon="2.46822">
        <ele>329</ele>
        <time>2016-10-04T00:07:19Z</time>
      </trkpt>
      <trkpt lat="46.4485" lon="2.46697">
        <ele>329</ele>
        <time>2016-10-04T00:09:19Z</time>
      </trkpt>
      <trkpt lat="46.44784" lon="2.46336">
        <ele>331</ele>
        <time>2016-10-04T00:11:19Z</time>
      </trkpt>
      <trkpt lat="46.44781" lon="2.46277">
        <ele>330</ele>
        <time>2016-10-04T00:13:19Z</time>
      </trkpt>
      <trkpt lat="46.44822" lon="2.46143">
        <ele>329</ele>
        <time>2016-10-04T00:15:19Z</time>
      </trkpt>
      <trkpt lat="46.44854" lon="2.46063">
        <ele>328</ele>
        <time>2016-10-04T00:17:19Z</time>
      </trkpt>
      <trkpt lat="46.44857" lon="2.45948">
        <ele>327</ele>
        <time>2016-10-04T00:19:19Z</time>
      </trkpt>
      <trkpt lat="46.44841" lon="2.4584">
        <ele>325</ele>
        <time>2016-10-04T00:21:19Z</time>
      </trkpt>
      <trkpt lat="46.44767" lon="2.45802">
        <ele>329</ele>
        <time>2016-10-04T00:23:19Z</time>
      </trkpt>
      <trkpt lat="46.44722" lon="2.45761">
        <ele>333</ele>
        <time>2016-10-04T00:25:19Z</time>
      </trkpt>
      <trkpt lat="46.44683" lon="2.45772">
        <ele>336</ele>
        <time>2016-10-04T00:27:19Z</time>
      </trkpt>
      <trkpt lat="46.44655" lon="2.45795">
        <ele>337</ele>
        <time>2016-10-04T00:29:19Z</time>
      </trkpt>
      <trkpt lat="46.44559" lon="2.45781">
        <ele>341</ele>
        <time>2016-10-04T00:31:19Z</time>
      </trkpt>
      <trkpt lat="46.44481" lon="2.45766">
        <ele>341</ele>
        <time>2016-10-04T00:33:19Z</time>
      </trkpt>
      <trkpt lat="46.44381" lon="2.45616">
        <ele>341</ele>
        <time>2016-10-04T00:35:19Z</time>
      </trkpt>
      <trkpt lat="46.44315" lon="2.45523">
        <ele>345</ele>
        <time>2016-10-04T00:37:19Z</time>
      </trkpt>
      <trkpt lat="46.44267" lon="2.45383">
        <ele>349</ele>
        <time>2016-10-04T00:39:19Z</time>
      </trkpt>
      <trkpt lat="46.44189" lon="2.45194">
        <ele>349</ele>
        <time>2016-10-04T00:41:19Z</time>
      </trkpt>
      <trkpt lat="46.44141" lon="2.45068">
        <ele>352</ele>
        <time>2016-10-04T00:43:19Z</time>
      </trkpt>
      <trkpt lat="46.44094" lon="2.44943">
        <ele>354</ele>
        <time>2016-10-04T00:45:19Z</time>
      </trkpt>
      <trkpt lat="46.44015" lon="2.44822">
        <ele>359</ele>
        <time>2016-10-04T00:47:19Z</time>
      </trkpt>
      <trkpt lat="46.43978" lon="2.44736">
        <ele>361</ele>
        <time>2016-10-04T00:49:19Z</time>
      </trkpt>
      <trkpt lat="46.43948" lon="2.44595">
        <ele>363</ele>
        <time>2016-10-04T00:51:19Z</time>
      </trkpt>
      <trkpt lat="46.43902" lon="2.44459">
        <ele>367</ele>
        <time>2016-10-04T00:53:19Z</time>
      </trkpt>
      <trkpt lat="46.43723" lon="2.44506">
        <ele>363</ele>
        <time>2016-10-04T00:55:19Z</time>
      </trkpt>
      <trkpt lat="46.43605" lon="2.44526">
        <ele>359</ele>
        <time>2016-10-04T00:57:19Z</time>
      </trkpt>
      <trkpt lat="46.43476" lon="2.44624">
        <ele>359</ele>
        <time>2016-10-04T00:59:19Z</time>
      </trkpt>
      <trkpt lat="46.43295" lon="2.44704">
        <ele>363</ele>
        <time>2016-10-04T01:01:19Z</time>
      </trkpt>
      <trkpt lat="46.4318" lon="2.44704">
        <ele>369</ele>
        <time>2016-10-04T01:03:19Z</time>
      </trkpt>
      <trkpt lat="46.42912" lon="2.44728">
        <ele>379</ele>
        <time>2016-10-04T01:05:19Z</time>
      </trkpt>
      <trkpt lat="46.42712" lon="2.44752">
        <ele>382</ele>
        <time>2016-10-04T01:07:19Z</time>
      </trkpt>
      <trkpt lat="46.4263" lon="2.44728">
        <ele>382</ele>
        <time>2016-10-04T01:09:19Z</time>
      </trkpt>
      <trkpt lat="46.42542" lon="2.44693">
        <ele>381</ele>
        <time>2016-10-04T01:11:19Z</time>
      </trkpt>
      <trkpt lat="46.42546" lon="2.4476">
        <ele>381</ele>
        <time>2016-10-04T01:13:19Z</time>
      </trkpt>
      <trkpt lat="46.42403" lon="2.44805">
        <ele>374</ele>
        <time>2016-10-04T01:15:19Z</time>
      </trkpt>
      <trkpt lat="46.42331" lon="2.44878">
        <ele>368</ele>
        <time>2016-10-04T01:17:19Z</time>
      </trkpt>
      <trkpt lat="46.42296" lon="2.44966">
        <ele>364</ele>
        <time>2016-10-04T01:19:19Z</time>
      </trkpt>
      <trkpt lat="46.42265" lon="2.44998">
        <ele>362</ele>
        <time>2016-10-04T01:21:19Z</time>
      </trkpt>
      <trkpt lat="46.42204" lon="2.44967">
        <ele>360</ele>
        <time>2016-10-04T01:23:19Z</time>
      </trkpt>
      <trkpt lat="46.42154" lon="2.45001">
        <ele>357</ele>
        <time>2016-10-04T01:25:19Z</time>
      </trkpt>
      <trkpt lat="46.42088" lon="2.45044">
        <ele>352</ele>
        <time>2016-10-04T01:27:19Z</time>
      </trkpt>
      <trkpt lat="46.42041" lon="2.45173">
        <ele>344</ele>
        <time>2016-10-04T01:29:19Z</time>
      </trkpt>
      <trkpt lat="46.42003" lon="2.45175">
        <ele>344</ele>
        <time>2016-10-04T01:31:19Z</time>
      </trkpt>
      <trkpt lat="46.41942" lon="2.45159">
        <ele>342</ele>
        <time>2016-10-04T01:33:19Z</time>
      </trkpt>
      <trkpt lat="46.41893" lon="2.45153">
        <ele>340</ele>
        <time>2016-10-04T01:35:19Z</time>
      </trkpt>
      <trkpt lat="46.41855" lon="2.45064">
        <ele>338</ele>
        <time>2016-10-04T01:37:19Z</time>
      </trkpt>
      <trkpt lat="46.41823" lon="2.44973">
        <ele>337</ele>
        <time>2016-10-04T01:39:19Z</time>
      </trkpt>
      <trkpt lat="46.41811" lon="2.44903">
        <ele>338</ele>
        <time>2016-10-04T01:41:19Z</time>
      </trkpt>
      <trkpt lat="46.41697" lon="2.44883">
        <ele>335</ele>
        <time>2016-10-04T01:43:19Z</time>
      </trkpt>
      <trkpt lat="46.41618" lon="2.44881">
        <ele>330</ele>
        <time>2016-10-04T01:45:19Z</time>
      </trkpt>
      <trkpt lat="46.41547" lon="2.44906">
        <ele>332</ele>
        <time>2016-10-04T01:47:19Z</time>
      </trkpt>
      <trkpt lat="46.4153" lon="2.44992">
        <ele>335</ele>
        <time>2016-10-04T01:49:19Z</time>
      </trkpt>
      <trkpt lat="46.41509" lon="2.45033">
        <ele>339</ele>
        <time>2016-10-04T01:51:19Z</time>
      </trkpt>
      <trkpt lat="46.41461" lon="2.45055">
        <ele>343</ele>
        <time>2016-10-04T01:53:19Z</time>
      </trkpt>
      <trkpt lat="46.41425" lon="2.45085">
        <ele>346</ele>
        <time>2016-10-04T01:55:19Z</time>
      </trkpt>
      <trkpt lat="46.41404" lon="2.45069">
        <ele>347</ele>
        <time>2016-10-04T01:57:19Z</time>
      </trkpt>
      <trkpt lat="46.41415" lon="2.45157">
        <ele>346</ele>
        <time>2016-10-04T01:59:19Z</time>
      </trkpt>
      <trkpt lat="46.41336" lon="2.45175">
        <ele>346</ele>
        <time>2016-10-04T02:01:19Z</time>
      </trkpt>
      <trkpt lat="46.41244" lon="2.45234">
        <ele>343</ele>
        <time>2016-10-04T02:03:19Z</time>
      </trkpt>
      <trkpt lat="46.41239" lon="2.45344">
        <ele>341</ele>
        <time>2016-10-04T02:05:19Z</time>
      </trkpt>
      <trkpt lat="46.41121" lon="2.45437">
        <ele>336</ele>
        <time>2016-10-04T02:07:19Z</time>
      </trkpt>
      <trkpt lat="46.41065" lon="2.45477">
        <ele>333</ele>
        <time>2016-10-04T02:09:19Z</time>
      </trkpt>
      <trkpt lat="46.41015" lon="2.45437">
        <ele>333</ele>
        <time>2016-10-04T02:11:19Z</time>
      </trkpt>
      <trkpt lat="46.41015" lon="2.45346">
        <ele>333</ele>
        <time>2016-10-04T02:13:19Z</time>
      </trkpt>
      <trkpt lat="46.41016" lon="2.45291">
        <ele>334</ele>
        <time>2016-10-04T02:15:19Z</time>
      </trkpt>
      <trkpt lat="46.41016" lon="2.45237">
        <ele>334</ele>
        <time>2016-10-04T02:17:19Z</time>
      </trkpt>
      <trkpt lat="46.40947" lon="2.44994">
        <ele>336</ele>
        <time>2016-10-04T02:19:19Z</time>
      </trkpt>
      <trkpt lat="46.40757" lon="2.45064">
        <ele>327</ele>
        <time>2016-10-04T02:21:19Z</time>
      </trkpt>
      <trkpt lat="46.40672" lon="2.45117">
        <ele>325</ele>
        <time>2016-10-04T02:23:19Z</time>
      </trkpt>
      <trkpt lat="46.40577" lon="2.45134">
        <ele>318</ele>
        <time>2016-10-04T02:25:19Z</time>
      </trkpt>
      <trkpt lat="46.40529" lon="2.45254">
        <ele>309</ele>
        <time>2016-10-04T02:27:19Z</time>
      </trkpt>
      <trkpt lat="46.40502" lon="2.45193">
        <ele>308</ele>
        <time>2016-10-04T02:29:19Z</time>
      </trkpt>
      <trkpt lat="46.4045" lon="2.45225">
        <ele>305</ele>
        <time>2016-10-04T02:31:19Z</time>
      </trkpt>
      <trkpt lat="46.40426" lon="2.45181">
        <ele>304</ele>
        <time>2016-10-04T02:33:19Z</time>
      </trkpt>
      <trkpt lat="46.40388" lon="2.45243">
        <ele>307</ele>
        <time>2016-10-04T02:35:19Z</time>
      </trkpt>
      <trkpt lat="46.40325" lon="2.45231">
        <ele>313</ele>
        <time>2016-10-04T02:37:19Z</time>
      </trkpt>
      <trkpt lat="46.40252" lon="2.45213">
        <ele>322</ele>
        <time>2016-10-04T02:39:19Z</time>
      </trkpt>
      <trkpt lat="46.40152" lon="2.45279">
        <ele>334</ele>
        <time>2016-10-04T02:41:19Z</time>
      </trkpt>
      <trkpt lat="46.40089" lon="2.45304">
        <ele>337</ele>
        <time>2016-10-04T02:43:19Z</time>
      </trkpt>
      <trkpt lat="46.40024" lon="2.45337">
        <ele>339</ele>
        <time>2016-10-04T02:45:19Z</time>
      </trkpt>
      <trkpt lat="46.39977" lon="2.45387">
        <ele>342</ele>
        <time>2016-10-04T02:47:19Z</time>
      </trkpt>
      <trkpt lat="46.39975" lon="2.45315">
        <ele>342</ele>
        <time>2016-10-04T02:49:19Z</time>
      </trkpt>
      <trkpt lat="46.39869" lon="2.45306">
        <ele>346</ele>
        <time>2016-10-04T02:51:19Z</time>
      </trkpt>
      <trkpt lat="46.39737" lon="2.45242">
        <ele>350</ele>
        <time>2016-10-04T02:53:19Z</time>
      </trkpt>
      <trkpt lat="46.3966" lon="2.45194">
        <ele>352</ele>
        <time>2016-10-04T02:55:19Z</time>
      </trkpt>
      <trkpt lat="46.39667" lon="2.45145">
        <ele>352</ele>
        <time>2016-10-04T02:57:19Z</time>
      </trkpt>
      <trkpt lat="46.39651" lon="2.4504">
        <ele>354</ele>
        <time>2016-10-04T02:59:19Z</time>
      </trkpt>
      <trkpt lat="46.39492" lon="2.4526">
        <ele>355</ele>
        <time>2016-10-04T03:01:19Z</time>
      </trkpt>
      <trkpt lat="46.39104" lon="2.44683">
        <ele>362</ele>
        <time>2016-10-04T03:03:19Z</time>
      </trkpt>
      <trkpt lat="46.38859" lon="2.4501">
        <ele>367</ele>
        <time>2016-10-04T03:05:19Z</time>
      </trkpt>
      <trkpt lat="46.3882" lon="2.44974">
        <ele>369</ele>
        <time>2016-10-04T03:07:19Z</time>
      </trkpt>
      <trkpt lat="46.38459" lon="2.45033">
        <ele>376</ele>
        <time>2016-10-04T03:09:19Z</time>
      </trkpt>
      <trkpt lat="46.38285" lon="2.45103">
        <ele>369</ele>
        <time>2016-10-04T03:11:19Z</time>
      </trkpt>
      <trkpt lat="46.38201" lon="2.45209">
        <ele>365</ele>
        <time>2016-10-04T03:13:19Z</time>
      </trkpt>
      <trkpt lat="46.38139" lon="2.45241">
        <ele>365</ele>
        <time>2016-10-04T03:15:19Z</time>
      </trkpt>
      <trkpt lat="46.38083" lon="2.452">
        <ele>365</ele>
        <time>2016-10-04T03:17:19Z</time>
      </trkpt>
      <trkpt lat="46.38051" lon="2.45166">
        <ele>366</ele>
        <time>2016-10-04T03:19:19Z</time>
      </trkpt>
      <trkpt lat="46.38053" lon="2.45005">
        <ele>367</ele>
        <time>2016-10-04T03:21:19Z</time>
      </trkpt>
      <trkpt lat="46.37972" lon="2.45008">
        <ele>366</ele>
        <time>2016-10-04T03:23:19Z</time>
      </trkpt>
      <trkpt lat="46.37924" lon="2.45035">
        <ele>363</ele>
        <time>2016-10-04T03:25:19Z</time>
      </trkpt>
      <trkpt lat="46.37905" lon="2.45083">
        <ele>361</ele>
        <time>2016-10-04T03:27:19Z</time>
      </trkpt>
      <trkpt lat="46.37767" lon="2.45192">
        <ele>345</ele>
        <time>2016-10-04T03:29:19Z</time>
      </trkpt>
      <trkpt lat="46.37763" lon="2.45341">
        <ele>338</ele>
        <time>2016-10-04T03:31:19Z</time>
      </trkpt>
      <trkpt lat="46.37756" lon="2.45396">
        <ele>337</ele>
        <time>2016-10-04T03:33:19Z</time>
      </trkpt>
      <trkpt lat="46.37776" lon="2.45455">
        <ele>336</ele>
        <time>2016-10-04T03:35:19Z</time>
      </trkpt>
      <trkpt lat="46.3782" lon="2.45513">
        <ele>336</ele>
        <time>2016-10-04T03:37:19Z</time>
      </trkpt>
      <trkpt lat="46.37834" lon="2.456">
        <ele>332</ele>
        <time>2016-10-04T03:39:19Z</time>
      </trkpt>
      <trkpt lat="46.37809" lon="2.45645">
        <ele>329</ele>
        <time>2016-10-04T03:41:19Z</time>
      </trkpt>
      <trkpt lat="46.37789" lon="2.45688">
        <ele>327</ele>
        <time>2016-10-04T03:43:19Z</time>
      </trkpt>
      <trkpt lat="46.37777" lon="2.45758">
        <ele>325</ele>
        <time>2016-10-04T03:45:19Z</time>
      </trkpt>
      <trkpt lat="46.37796" lon="2.45842">
        <ele>317</ele>
        <time>2016-10-04T03:47:19Z</time>
      </trkpt>
      <trkpt lat="46.37759" lon="2.45933">
        <ele>311</ele>
        <time>2016-10-04T03:49:19Z</time>
      </trkpt>
      <trkpt lat="46.3772" lon="2.46006">
        <ele>303</ele>
        <time>2016-10-04T03:51:19Z</time>
      </trkpt>
      <trkpt lat="46.37688" lon="2.4604">
        <ele>301</ele>
        <time>2016-10-04T03:53:19Z</time>
      </trkpt>
      <trkpt lat="46.37676" lon="2.4611">
        <ele>298</ele>
        <time>2016-10-04T03:55:19Z</time>
      </trkpt>
      <trkpt lat="46.37715" lon="2.46142">
        <ele>299</ele>
        <time>2016-10-04T03:57:19Z</time>
      </trkpt>
      <trkpt lat="46.37724" lon="2.46192">
        <ele>299</ele>
        <time>2016-10-04T03:59:19Z</time>
      </trkpt>
      <trkpt lat="46.37797" lon="2.4623">
        <ele>307</ele>
        <time>2016-10-04T04:01:19Z</time>
      </trkpt>
      <trkpt lat="46.37849" lon="2.46339">
        <ele>305</ele>
        <time>2016-10-04T04:03:19Z</time>
      </trkpt>
      <trkpt lat="46.37833" lon="2.46484">
        <ele>298</ele>
        <time>2016-10-04T04:05:19Z</time>
      </trkpt>
      <trkpt lat="46.37851" lon="2.46543">
        <ele>300</ele>
        <time>2016-10-04T04:07:19Z</time>
      </trkpt>
      <trkpt lat="46.37891" lon="2.46568">
        <ele>306</ele>
        <time>2016-10-04T04:09:19Z</time>
      </trkpt>
      <trkpt lat="46.37921" lon="2.46664">
        <ele>307</ele>
        <time>2016-10-04T04:11:19Z</time>
      </trkpt>
      <trkpt lat="46.37922" lon="2.46721">
        <ele>301</ele>
        <time>2016-10-04T04:13:19Z</time>
      </trkpt>
      <trkpt lat="46.37959" lon="2.46759">
        <ele>303</ele>
        <time>2016-10-04T04:15:19Z</time>
      </trkpt>
      <trkpt lat="46.37955" lon="2.46811">
        <ele>301</ele>
        <time>2016-10-04T04:17:19Z</time>
      </trkpt>
      <trkpt lat="46.37976" lon="2.46882">
        <ele>306</ele>
        <time>2016-10-04T04:19:19Z</time>
      </trkpt>
      <trkpt lat="46.37941" lon="2.46914">
        <ele>302</ele>
        <time>2016-10-04T04:21:19Z</time>
      </trkpt>
      <trkpt lat="46.37891" lon="2.46916">
        <ele>296</ele>
        <time>2016-10-04T04:23:19Z</time>
      </trkpt>
      <trkpt lat="46.37858" lon="2.469">
        <ele>292</ele>
        <time>2016-10-04T04:25:19Z</time>
      </trkpt>
      <trkpt lat="46.3782" lon="2.46975">
        <ele>294</ele>
        <time>2016-10-04T04:27:19Z</time>
      </trkpt>
      <trkpt lat="46.3781" lon="2.47075">
        <ele>294</ele>
        <time>2016-10-04T04:29:19Z</time>
      </trkpt>
      <trkpt lat="46.37793" lon="2.4712">
        <ele>295</ele>
        <time>2016-10-04T04:31:19Z</time>
      </trkpt>
      <trkpt lat="46.37758" lon="2.47145">
        <ele>296</ele>
        <time>2016-10-04T04:33:19Z</time>
      </trkpt>
      <trkpt lat="46.37788" lon="2.47161">
        <ele>294</ele>
        <time>2016-10-04T04:35:19Z</time>
      </trkpt>
      <trkpt lat="46.37809" lon="2.47211">
        <ele>294</ele>
        <time>2016-10-04T04:37:19Z</time>
      </trkpt>
      <trkpt lat="46.3779" lon="2.47193">
        <ele>295</ele>
        <time>2016-10-04T04:39:19Z</time>
      </trkpt>
      <trkpt lat="46.37751" lon="2.47188">
        <ele>297</ele>
        <time>2016-10-04T04:41:19Z</time>
      </trkpt>
      <trkpt lat="46.37674" lon="2.47236">
        <ele>304</ele>
        <time>2016-10-04T04:43:19Z</time>
      </trkpt>
      <trkpt lat="46.37611" lon="2.47311">
        <ele>314</ele>
        <time>2016-10-04T04:45:19Z</time>
      </trkpt>
      <trkpt lat="46.37584" lon="2.47365">
        <ele>320</ele>
        <time>2016-10-04T04:47:19Z</time>
      </trkpt>
      <trkpt lat="46.37562" lon="2.47474">
        <ele>323</ele>
        <time>2016-10-04T04:49:19Z</time>
      </trkpt>
      <trkpt lat="46.37542" lon="2.47567">
        <ele>324</ele>
        <time>2016-10-04T04:51:19Z</time>
      </trkpt>
      <trkpt lat="46.37519" lon="2.47592">
        <ele>325</ele>
        <time>2016-10-04T04:53:19Z</time>
      </trkpt>
      <trkpt lat="46.37533" lon="2.47719">
        <ele>321</ele>
        <time>2016-10-04T04:55:19Z</time>
      </trkpt>
      <trkpt lat="46.37532" lon="2.47785">
        <ele>318</ele>
        <time>2016-10-04T04:57:19Z</time>
      </trkpt>
      <trkpt lat="46.37469" lon="2.47794">
        <ele>323</ele>
        <time>2016-10-04T04:59:19Z</time>
      </trkpt>
      <trkpt lat="46.37464" lon="2.47841">
        <ele>323</ele>
        <time>2016-10-04T05:01:19Z</time>
      </trkpt>
      <trkpt lat="46.37472" lon="2.47871">
        <ele>321</ele>
        <time>2016-10-04T05:03:19Z</time>
      </trkpt>
      <trkpt lat="46.37501" lon="2.47875">
        <ele>318</ele>
        <time>2016-10-04T05:05:19Z</time>
      </trkpt>
      <trkpt lat="46.37483" lon="2.47962">
        <ele>318</ele>
        <time>2016-10-04T05:07:19Z</time>
      </trkpt>
      <trkpt lat="46.37446" lon="2.48028">
        <ele>320</ele>
        <time>2016-10-04T05:09:19Z</time>
      </trkpt>
      <trkpt lat="46.3743" lon="2.48048">
        <ele>320</ele>
        <time>2016-10-04T05:11:19Z</time>
      </trkpt>
      <trkpt lat="46.37404" lon="2.48052">
        <ele>322</ele>
        <time>2016-10-04T05:13:19Z</time>
      </trkpt>
      <trkpt lat="46.37543" lon="2.4859">
        <ele>313</ele>
        <time>2016-10-04T05:15:19Z</time>
      </trkpt>
      <trkpt lat="46.37577" lon="2.48699">
        <ele>313</ele>
        <time>2016-10-04T05:17:19Z</time>
      </trkpt>
      <trkpt lat="46.37652" lon="2.48924">
        <ele>308</ele>
        <time>2016-10-04T05:19:19Z</time>
      </trkpt>
      <trkpt lat="46.37632" lon="2.49026">
        <ele>306</ele>
        <time>2016-10-04T05:21:19Z</time>
      </trkpt>
      <trkpt lat="46.3759" lon="2.49159">
        <ele>306</ele>
        <time>2016-10-04T05:23:19Z</time>
      </trkpt>
      <trkpt lat="46.37656" lon="2.49352">
        <ele>299</ele>
        <time>2016-10-04T05:25:19Z</time>
      </trkpt>
      <trkpt lat="46.37718" lon="2.49461">
        <ele>293</ele>
        <time>2016-10-04T05:27:19Z</time>
      </trkpt>
      <trkpt lat="46.37792" lon="2.49514">
        <ele>288</ele>
        <time>2016-10-04T05:29:19Z</time>
      </trkpt>
      <trkpt lat="46.37822" lon="2.49699">
        <ele>285</ele>
        <time>2016-10-04T05:31:19Z</time>
      </trkpt>
      <trkpt lat="46.37835" lon="2.49833">
        <ele>285</ele>
        <time>2016-10-04T05:33:19Z</time>
      </trkpt>
      <trkpt lat="46.37834" lon="2.49933">
        <ele>283</ele>
        <time>2016-10-04T05:35:19Z</time>
      </trkpt>
      <trkpt lat="46.37865" lon="2.50038">
        <ele>279</ele>
        <time>2016-10-04T05:37:19Z</time>
      </trkpt>
      <trkpt lat="46.37893" lon="2.50167">
        <ele>275</ele>
        <time>2016-10-04T05:39:19Z</time>
      </trkpt>
      <trkpt lat="46.37891" lon="2.5028">
        <ele>272</ele>
        <time>2016-10-04T05:41:19Z</time>
      </trkpt>
      <trkpt lat="46.37929" lon="2.50366">
        <ele>267</ele>
        <time>2016-10-04T05:43:19Z</time>
      </trkpt>
      <trkpt lat="46.38002" lon="2.50523">
        <ele>259</ele>
        <time>2016-10-04T05:45:19Z</time>
      </trkpt>
      <trkpt lat="46.37986" lon="2.5058">
        <ele>255</ele>
        <time>2016-10-04T05:47:19Z</time>
      </trkpt>
      <trkpt lat="46.38001" lon="2.50771">
        <ele>251</ele>
        <time>2016-10-04T05:49:19Z</time>
      </trkpt>
      <trkpt lat="46.37943" lon="2.50782">
        <ele>253</ele>
        <time>2016-10-04T05:51:19Z</time>
      </trkpt>
      <trkpt lat="46.37926" lon="2.50775">
        <ele>253</ele>
        <time>2016-10-04T05:53:19Z</time>
      </trkpt>
      <trkpt lat="46.37886" lon="2.50777">
        <ele>254</ele>
        <time>2016-10-04T05:55:19Z</time>
      </trkpt>
      <trkpt lat="46.37884" lon="2.5097">
        <ele>250</ele>
        <time>2016-10-04T05:57:19Z</time>
      </trkpt>
      <trkpt lat="46.3795" lon="2.51254">
        <ele>243</ele>
        <time>2016-10-04T05:59:19Z</time>
      </trkpt>
      <trkpt lat="46.37872" lon="2.51294">
        <ele>241</ele>
        <time>2016-10-04T06:01:19Z</time>
      </trkpt>
      <trkpt lat="46.37829" lon="2.51332">
        <ele>239</ele>
        <time>2016-10-04T06:03:19Z</time>
      </trkpt>
      <trkpt lat="46.37792" lon="2.51408">
        <ele>238</ele>
        <time>2016-10-04T06:05:19Z</time>
      </trkpt>
      <trkpt lat="46.37727" lon="2.51458">
        <ele>242</ele>
        <time>2016-10-04T06:07:19Z</time>
      </trkpt>
      <trkpt lat="46.37624" lon="2.51494">
        <ele>244</ele>
        <time>2016-10-04T06:09:19Z</time>
      </trkpt>
      <trkpt lat="46.37589" lon="2.51549">
        <ele>243</ele>
        <time>2016-10-04T06:11:19Z</time>
      </trkpt>
      <trkpt lat="46.3745" lon="2.518">
        <ele>243</ele>
        <time>2016-10-04T06:13:19Z</time>
      </trkpt>
      <trkpt lat="46.37373" lon="2.51796">
        <ele>248</ele>
        <time>2016-10-04T06:15:19Z</time>
      </trkpt>
      <trkpt lat="46.37336" lon="2.51826">
        <ele>249</ele>
        <time>2016-10-04T06:17:19Z</time>
      </trkpt>
      <trkpt lat="46.37314" lon="2.51862">
        <ele>249</ele>
        <time>2016-10-04T06:19:19Z</time>
      </trkpt>
      <trkpt lat="46.37341" lon="2.51961">
        <ele>245</ele>
        <time>2016-10-04T06:21:19Z</time>
      </trkpt>
      <trkpt lat="46.37388" lon="2.52027">
        <ele>241</ele>
        <time>2016-10-04T06:23:19Z</time>
      </trkpt>
      <trkpt lat="46.3718" lon="2.52176">
        <ele>237</ele>
        <time>2016-10-04T06:25:19Z</time>
      </trkpt>
      <trkpt lat="46.37101" lon="2.52353">
        <ele>231</ele>
        <time>2016-10-04T06:27:19Z</time>
      </trkpt>
      <trkpt lat="46.37051" lon="2.52504">
        <ele>224</ele>
        <time>2016-10-04T06:29:19Z</time>
      </trkpt>
      <trkpt lat="46.37015" lon="2.5253">
        <ele>222</ele>
        <time>2016-10-04T06:31:19Z</time>
      </trkpt>
      <trkpt lat="46.36974" lon="2.52448">
        <ele>222</ele>
        <time>2016-10-04T06:33:19Z</time>
      </trkpt>
      <trkpt lat="46.36941" lon="2.52485">
        <ele>223</ele>
        <time>2016-10-04T06:35:19Z</time>
      </trkpt>
      <trkpt lat="46.36938" lon="2.52556">
        <ele>223</ele>
        <time>2016-10-04T06:37:19Z</time>
      </trkpt>
      <trkpt lat="46.36827" lon="2.52647">
        <ele>231</ele>
        <time>2016-10-04T06:39:19Z</time>
      </trkpt>
      <trkpt lat="46.36702" lon="2.52708">
        <ele>236</ele>
        <time>2016-10-04T06:41:19Z</time>
      </trkpt>
      <trkpt lat="46.36632" lon="2.52545">
        <ele>237</ele>
        <time>2016-10-04T06:43:19Z</time>
      </trkpt>
      <trkpt lat="46.36453" lon="2.52174">
        <ele>251</ele>
        <time>2016-10-04T06:45:19Z</time>
      </trkpt>
      <trkpt lat="46.36325" lon="2.52296">
        <ele>246</ele>
        <time>2016-10-04T06:47:19Z</time>
      </trkpt>
      <trkpt lat="46.36265" lon="2.52401">
        <ele>247</ele>
        <time>2016-10-04T06:49:19Z</time>
      </trkpt>
      <trkpt lat="46.36105" lon="2.52682">
        <ele>245</ele>
        <time>2016-10-04T06:51:19Z</time>
      </trkpt>
      <trkpt lat="46.36066" lon="2.52811">
        <ele>250</ele>
        <time>2016-10-04T06:53:19Z</time>
      </trkpt>
      <trkpt lat="46.36072" lon="2.52895">
        <ele>251</ele>
        <time>2016-10-04T06:55:19Z</time>
      </trkpt>
      <trkpt lat="46.36092" lon="2.52984">
        <ele>249</ele>
        <time>2016-10-04T06:57:19Z</time>
      </trkpt>
      <trkpt lat="46.36051" lon="2.52952">
        <ele>251</ele>
        <time>2016-10-04T06:59:19Z</time>
      </trkpt>
      <trkpt lat="46.35984" lon="2.53107">
        <ele>247</ele>
        <time>2016-10-04T07:01:19Z</time>
      </trkpt>
      <trkpt lat="46.35973" lon="2.5322">
        <ele>245</ele>
        <time>2016-10-04T07:03:19Z</time>
      </trkpt>
      <trkpt lat="46.35946" lon="2.53344">
        <ele>245</ele>
        <time>2016-10-04T07:05:19Z</time>
      </trkpt>
      <trkpt lat="46.35986" lon="2.53409">
        <ele>243</ele>
        <time>2016-10-04T07:07:19Z</time>
      </trkpt>
      <trkpt lat="46.3588" lon="2.53551">
        <ele>242</ele>
        <time>2016-10-04T07:09:19Z</time>
      </trkpt>
      <trkpt lat="46.35825" lon="2.53594">
        <ele>241</ele>
        <time>2016-10-04T07:11:19Z</time>
      </trkpt>
      <trkpt lat="46.35773" lon="2.53662">
        <ele>239</ele>
        <time>2016-10-04T07:13:19Z</time>
      </trkpt>
      <trkpt lat="46.35722" lon="2.53704">
        <ele>241</ele>
        <time>2016-10-04T07:15:19Z</time>
      </trkpt>
      <trkpt lat="46.35772" lon="2.53831">
        <ele>240</ele>
        <time>2016-10-04T07:17:19Z</time>
      </trkpt>
      <trkpt lat="46.35797" lon="2.53856">
        <ele>240</ele>
        <time>2016-10-04T07:19:19Z</time>
      </trkpt>
      <trkpt lat="46.3575" lon="2.54003">
        <ele>240</ele>
        <time>2016-10-04T07:21:19Z</time>
      </trkpt>
      <trkpt lat="46.35717" lon="2.54034">
        <ele>240</ele>
        <time>2016-10-04T07:23:19Z</time>
      </trkpt>
      <trkpt lat="46.35699" lon="2.54082">
        <ele>240</ele>
        <time>2016-10-04T07:25:19Z</time>
      </trkpt>
      <trkpt lat="46.35694" lon="2.54183">
        <ele>239</ele>
        <time>2016-10-04T07:27:19Z</time>
      </trkpt>
      <trkpt lat="46.35612" lon="2.54423">
        <ele>244</ele>
        <time>2016-10-04T07:29:19Z</time>
      </trkpt>
      <trkpt lat="46.35731" lon="2.54507">
        <ele>236</ele>
        <time>2016-10-04T07:31:19Z</time>
      </trkpt>
      <trkpt lat="46.35698" lon="2.54918">
        <ele>235</ele>
        <time>2016-10-04T07:33:19Z</time>
      </trkpt>
      <trkpt lat="46.35687" lon="2.5512">
        <ele>236</ele>
        <time>2016-10-04T07:35:19Z</time>
      </trkpt>
      <trkpt lat="46.35629" lon="2.55303">
        <ele>241</ele>
        <time>2016-10-04T07:37:19Z</time>
      </trkpt>
      <trkpt lat="46.35558" lon="2.55439">
        <ele>248</ele>
        <time>2016-10-04T07:39:19Z</time>
      </trkpt>
      <trkpt lat="46.35526" lon="2.5551">
        <ele>249</ele>
        <time>2016-10-04T07:41:19Z</time>
      </trkpt>
      <trkpt lat="46.35463" lon="2.55638">
        <ele>246</ele>
        <time>2016-10-04T07:43:19Z</time>
      </trkpt>
      <trkpt lat="46.35369" lon="2.55756">
        <ele>237</ele>
        <time>2016-10-04T07:45:19Z</time>
      </trkpt>
      <trkpt lat="46.35402" lon="2.55781">
        <ele>237</ele>
        <time>2016-10-04T07:47:19Z</time>
      </trkpt>
      <trkpt lat="46.35458" lon="2.55767">
        <ele>241</ele>
        <time>2016-10-04T07:49:19Z</time>
      </trkpt>
      <trkpt lat="46.35556" lon="2.55814">
        <ele>246</ele>
        <time>2016-10-04T07:51:19Z</time>
      </trkpt>
      <trkpt lat="46.35725" lon="2.55932">
        <ele>247</ele>
        <time>2016-10-04T07:53:19Z</time>
      </trkpt>
      <trkpt lat="46.35717" lon="2.56005">
        <ele>245</ele>
        <time>2016-10-04T07:55:19Z</time>
      </trkpt>
      <trkpt lat="46.3581" lon="2.56005">
        <ele>247</ele>
        <time>2016-10-04T07:57:19Z</time>
      </trkpt>
      <trkpt lat="46.35879" lon="2.56048">
        <ele>244</ele>
        <time>2016-10-04T07:59:19Z</time>
      </trkpt>
      <trkpt lat="46.3599" lon="2.56198">
        <ele>238</ele>
        <time>2016-10-04T08:01:19Z</time>
      </trkpt>
      <trkpt lat="46.36143" lon="2.56369">
        <ele>235</ele>
        <time>2016-10-04T08:03:19Z</time>
      </trkpt>
      <trkpt lat="46.35975" lon="2.56882">
        <ele>229</ele>
        <time>2016-10-04T08:05:19Z</time>
      </trkpt>
      <trkpt lat="46.35912" lon="2.56973">
        <ele>228</ele>
        <time>2016-10-04T08:07:19Z</time>
      </trkpt>
      <trkpt lat="46.35939" lon="2.57037">
        <ele>228</ele>
        <time>2016-10-04T08:09:19Z</time>
      </trkpt>
      <trkpt lat="46.35938" lon="2.57234">
        <ele>225</ele>
        <time>2016-10-04T08:11:19Z</time>
      </trkpt>
      <trkpt lat="46.35965" lon="2.57316">
        <ele>224</ele>
        <time>2016-10-04T08:13:19Z</time>
      </trkpt>
      <trkpt lat="46.36005" lon="2.57366">
        <ele>225</ele>
        <time>2016-10-04T08:15:19Z</time>
      </trkpt>
      <trkpt lat="46.36094" lon="2.57407">
        <ele>229</ele>
        <time>2016-10-04T08:17:19Z</time>
      </trkpt>
      <trkpt lat="46.36216" lon="2.57454">
        <ele>229</ele>
        <time>2016-10-04T08:19:19Z</time>
      </trkpt>
      <trkpt lat="46.36074" lon="2.57591">
        <ele>225</ele>
        <time>2016-10-04T08:21:19Z</time>
      </trkpt>
      <trkpt lat="46.3592" lon="2.57667">
        <ele>216</ele>
        <time>2016-10-04T08:23:19Z</time>
      </trkpt>
      <trkpt lat="46.35879" lon="2.57718">
        <ele>222</ele>
        <time>2016-10-04T08:25:19Z</time>
      </trkpt>
      <trkpt lat="46.3584" lon="2.57732">
        <ele>227</ele>
        <time>2016-10-04T08:27:19Z</time>
      </trkpt>
      <trkpt lat="46.35927" lon="2.579">
        <ele>225</ele>
        <time>2016-10-04T08:29:19Z</time>
      </trkpt>
      <trkpt lat="46.3602" lon="2.58077">
        <ele>221</ele>
        <time>2016-10-04T08:31:19Z</time>
      </trkpt>
      <trkpt lat="46.36067" lon="2.58141">
        <ele>216</ele>
        <time>2016-10-04T08:33:19Z</time>
      </trkpt>
      <trkpt lat="46.36122" lon="2.5814">
        <ele>213</ele>
        <time>2016-10-04T08:35:19Z</time>
      </trkpt>
      <trkpt lat="46.36424" lon="2.57836">
        <ele>228</ele>
        <time>2016-10-04T08:37:19Z</time>
      </trkpt>
      <trkpt lat="46.36511" lon="2.58018">
        <ele>225</ele>
        <time>2016-10-04T08:39:19Z</time>
      </trkpt>
      <trkpt lat="46.36532" lon="2.58081">
        <ele>223</ele>
        <time>2016-10-04T08:41:19Z</time>
      </trkpt>
      <trkpt lat="46.36564" lon="2.58052">
        <ele>221</ele>
        <time>2016-10-04T08:43:19Z</time>
      </trkpt>
      <trkpt lat="46.36561" lon="2.5801">
        <ele>223</ele>
        <time>2016-10-04T08:45:19Z</time>
      </trkpt>
      <trkpt lat="46.36603" lon="2.58013">
        <ele>221</ele>
        <time>2016-10-04T08:47:19Z</time>
      </trkpt>
    </trkseg>
  </trk>
</gpx>